Time;durP1;ratioP1;P1;durP2;ratioP2;P2;SDS_P1;SDS_P2;PMS_P1;PMS_P2;Temp;Humidity;BMP_temperature;BMP_pressure;BME280_temperature;BME280_humidity;BME280_pressure;Samples;Min_cycle;Max_cycle;Signal;HPM_P1;HPM_P2
2023/07/26 00:00:29;;;;;;;14.60;7.00;;;28.20;64.30;;;28.93;45.61;93893.78;5073839;28;20224;-59
2023/07/26 00:02:57;;;;;;;16.53;8.20;;;28.20;64.50;;;28.91;45.63;93901.38;5080858;28;20528;-60
2023/07/26 00:05:24;;;;;;;19.70;7.43;;;28.10;64.70;;;28.90;45.95;93898.97;5079512;28;20289;-62
2023/07/26 00:07:51;;;;;;;18.40;7.57;;;28.10;65.40;;;28.89;46.75;93891.91;5081949;28;20489;-59
2023/07/26 00:10:18;;;;;;;14.23;8.00;;;28.10;65.50;;;28.89;46.80;93887.34;5079221;28;20474;-62
2023/07/26 00:12:46;;;;;;;18.23;7.90;;;28.10;65.50;;;28.91;46.72;93895.16;5076863;28;20886;-63
2023/07/26 00:15:13;;;;;;;8.97;5.93;;;28.10;65.70;;;28.88;46.86;93885.69;5075303;28;20215;-62
2023/07/26 00:17:42;;;;;;;19.77;7.60;;;28.10;65.70;;;28.88;47.12;93888.41;5076384;28;20457;-63
2023/07/26 00:20:10;;;;;;;23.63;8.07;;;28.10;66.00;;;28.87;46.90;93881.38;5077594;28;20520;-59
2023/07/26 00:22:37;;;;;;;12.77;7.33;;;28.10;66.10;;;28.86;46.53;93887.06;5082534;28;20195;-63
2023/07/26 00:25:05;;;;;;;11.03;6.77;;;28.10;66.10;;;28.84;47.04;93873.00;5079358;28;20224;-61
2023/07/26 00:27:34;;;;;;;27.37;7.87;;;28.10;66.50;;;28.79;47.63;93881.97;5078339;28;20449;-59
2023/07/26 00:30:01;;;;;;;19.20;7.10;;;28.00;66.90;;;28.74;47.81;93874.66;5074103;28;20498;-63
2023/07/26 00:32:28;;;;;;;19.67;8.10;;;28.00;66.80;;;28.75;47.01;93875.47;5078636;28;20206;-59
2023/07/26 00:34:57;;;;;;;14.07;7.73;;;28.00;66.90;;;28.74;47.76;93890.13;5081594;28;20454;-59
2023/07/26 00:37:24;;;;;;;12.33;6.43;;;27.90;67.00;;;28.72;47.65;93865.19;5076890;28;20577;-62
2023/07/26 00:39:51;;;;;;;15.93;6.60;;;27.90;67.50;;;28.69;47.99;93868.47;5080868;28;20966;-61
2023/07/26 00:42:19;;;;;;;15.87;6.90;;;27.90;67.50;;;28.67;47.41;93871.44;5076379;28;20451;-62
2023/07/26 00:44:46;;;;;;;15.43;7.03;;;27.90;67.50;;;28.65;47.66;93859.31;5079808;28;20457;-62
2023/07/26 00:47:13;;;;;;;14.57;7.83;;;27.90;67.50;;;28.63;47.57;93856.03;5078910;28;20487;-62
2023/07/26 00:49:41;;;;;;;17.43;8.13;;;27.80;67.50;;;28.60;48.34;93858.22;5078704;28;20500;-59
2023/07/26 00:52:10;;;;;;;18.10;8.23;;;27.80;67.40;;;28.63;48.52;93864.16;5078711;28;20210;-59
2023/07/26 00:54:37;;;;;;;15.27;8.07;;;27.80;68.20;;;28.59;48.44;93851.19;5079731;28;20211;-61
2023/07/26 00:57:05;;;;;;;11.33;6.27;;;27.80;68.10;;;28.57;47.91;93853.34;5077260;28;20239;-59
2023/07/26 00:59:33;;;;;;;20.60;7.50;;;27.80;68.20;;;28.56;47.96;93851.72;5080990;28;20351;-59
2023/07/26 01:02:00;;;;;;;12.43;7.43;;;27.80;68.40;;;28.59;48.79;93856.59;5074871;28;20238;-59
2023/07/26 01:04:27;;;;;;;17.00;7.37;;;27.80;68.70;;;28.59;48.13;93861.22;5080128;28;20568;-61
2023/07/26 01:07:01;;;;;;;20.00;7.73;;;27.80;68.80;;;28.60;48.23;93843.91;5073902;28;20469;-59
2023/07/26 01:09:34;;;;;;;25.80;8.17;;;27.80;69.00;;;28.61;48.83;93854.44;5079213;28;20317;-62
2023/07/26 01:12:05;;;;;;;22.60;7.67;;;27.80;68.90;;;28.59;48.84;93855.81;5075171;28;20629;-60
2023/07/26 01:14:38;;;;;;;15.87;7.30;;;27.80;69.00;;;28.55;49.45;93860.09;5073785;28;20332;-62
2023/07/26 01:17:05;;;;;;;16.27;7.10;;;27.80;70.00;;;28.51;49.47;93848.25;5075002;28;20442;-62
2023/07/26 01:19:32;;;;;;;21.50;7.53;;;27.70;69.50;;;28.47;49.34;93852.56;5074827;28;20482;-62
2023/07/26 01:22:01;;;;;;;18.40;7.67;;;27.70;69.60;;;28.43;49.05;93845.00;5078098;28;20474;-61
2023/07/26 01:24:28;;;;;;;16.10;6.23;;;27.70;70.20;;;28.37;49.23;93837.22;5076096;28;20901;-62
2023/07/26 01:26:56;;;;;;;18.03;7.70;;;27.60;69.90;;;28.34;49.68;93824.25;5078073;28;20545;-60
2023/07/26 01:29:23;;;;;;;15.93;8.43;;;27.60;70.20;;;28.33;49.76;93826.13;5078127;28;20900;-61
2023/07/26 01:31:50;;;;;;;19.40;7.70;;;27.50;70.20;;;28.33;49.38;93841.53;5073319;28;20493;-59
2023/07/26 01:34:18;;;;;;;13.90;7.03;;;27.50;70.30;;;28.29;49.62;93819.66;5078128;28;20973;-62
2023/07/26 01:36:45;;;;;;;24.97;7.33;;;27.50;70.60;;;28.25;49.67;93822.09;5073079;28;20470;-63
2023/07/26 01:39:13;;;;;;;17.13;7.30;;;27.50;70.40;;;28.24;49.32;93838.59;5078212;28;20453;-62
2023/07/26 01:41:41;;;;;;;19.90;8.03;;;27.50;70.60;;;28.22;49.83;93821.84;5072615;28;20519;-60
2023/07/26 01:44:08;;;;;;;14.10;7.07;;;27.50;71.00;;;28.21;49.89;93823.75;5073963;28;20491;-62
2023/07/26 01:46:35;;;;;;;15.60;7.63;;;27.50;70.80;;;28.21;50.07;93817.50;5076491;28;20474;-63
2023/07/26 01:49:03;;;;;;;17.40;9.20;;;27.50;71.00;;;28.19;49.82;93806.97;5074140;28;21041;-61
2023/07/26 01:51:30;;;;;;;20.27;7.17;;;27.40;71.20;;;28.18;50.75;93834.28;5076204;28;21054;-60
2023/07/26 01:53:57;;;;;;;16.37;7.93;;;27.40;71.70;;;28.12;50.26;93798.34;5073860;28;20454;-61
2023/07/26 01:56:26;;;;;;;26.10;7.27;;;27.40;71.30;;;28.12;50.25;93817.28;5075004;28;20470;-59
2023/07/26 01:58:53;;;;;;;24.30;7.97;;;27.30;71.40;;;28.10;49.89;93811.31;5074461;28;20958;-59
2023/07/26 02:01:20;;;;;;;13.40;7.33;;;27.30;71.50;;;28.08;50.44;93808.09;5075071;28;20530;-59
2023/07/26 02:03:47;;;;;;;18.60;7.87;;;27.30;71.80;;;28.06;50.54;93794.84;5074807;28;20453;-60
2023/07/26 02:06:15;;;;;;;16.87;8.60;;;27.30;72.20;;;28.05;50.38;93803.25;5074798;28;20480;-59
2023/07/26 02:08:42;;;;;;;19.83;7.60;;;27.30;71.80;;;28.02;50.64;93798.38;5073593;28;20573;-60
2023/07/26 02:11:10;;;;;;;19.40;8.70;;;27.30;72.70;;;28.00;51.12;93812.19;5074334;28;20477;-60
2023/07/26 02:13:38;;;;;;;15.53;7.60;;;27.20;72.50;;;28.00;50.53;93805.97;5069187;28;20455;-59
2023/07/26 02:16:06;;;;;;;21.93;8.97;;;27.20;72.50;;;27.99;50.88;93799.72;5074956;28;20691;-62
2023/07/26 02:18:33;;;;;;;22.70;8.03;;;27.20;72.80;;;27.99;50.86;93807.84;5071950;28;20461;-63
2023/07/26 02:21:00;;;;;;;18.93;7.80;;;27.20;72.90;;;27.97;50.85;93820.84;5078298;28;20466;-62
2023/07/26 02:23:28;;;;;;;14.57;8.50;;;27.20;72.70;;;27.94;51.18;93810.53;5074759;28;20458;-63
2023/07/26 02:25:55;;;;;;;22.67;8.03;;;27.20;72.70;;;27.94;51.18;93812.44;5077429;28;20507;-63
2023/07/26 02:28:22;;;;;;;17.90;8.97;;;27.20;73.10;;;27.93;51.25;93829.72;5074352;28;20446;-61
2023/07/26 02:30:51;;;;;;;22.27;7.80;;;27.10;72.90;;;27.89;51.06;93832.19;5077152;28;21024;-61
2023/07/26 02:33:18;;;;;;;12.87;7.80;;;27.10;73.20;;;27.85;51.07;93823.78;5074669;28;20955;-60
2023/07/26 02:35:45;;;;;;;17.30;8.43;;;27.10;73.30;;;27.84;51.05;93824.06;5075927;28;20463;-64
2023/07/26 02:38:12;;;;;;;16.17;7.80;;;27.10;73.40;;;27.82;51.55;93829.75;5076496;28;20450;-62
2023/07/26 02:40:40;;;;;;;19.00;7.33;;;27.00;73.60;;;27.81;51.20;93830.00;5076175;28;20471;-63
2023/07/26 02:43:07;;;;;;;15.83;7.70;;;27.10;73.60;;;27.79;51.53;93838.41;5074955;28;20516;-59
2023/07/26 02:45:34;;;;;;;17.33;7.43;;;27.00;73.50;;;27.78;51.33;93831.41;5074542;28;20466;-60
2023/07/26 02:48:03;;;;;;;15.77;8.30;;;27.00;73.60;;;27.77;51.66;93845.97;5078523;28;20454;-59
2023/07/26 02:50:30;;;;;;;11.97;7.80;;;27.00;73.60;;;27.75;51.94;93852.72;5073132;28;20494;-61
2023/07/26 02:52:57;;;;;;;17.53;8.20;;;27.00;74.00;;;27.72;51.77;93857.59;5078068;28;20453;-62
2023/07/26 02:55:24;;;;;;;20.83;7.30;;;26.90;74.10;;;27.68;52.01;93855.72;5075406;28;20466;-62
2023/07/26 02:57:52;;;;;;;19.40;6.70;;;26.90;74.50;;;27.66;52.08;93860.59;5076677;28;20445;-62
2023/07/26 03:00:19;;;;;;;25.80;7.67;;;26.90;74.60;;;27.63;51.91;93859.22;5075664;28;20917;-61
2023/07/26 03:02:46;;;;;;;20.17;7.57;;;26.90;74.60;;;27.60;51.97;93864.38;5076271;28;21009;-59
2023/07/26 03:05:15;;;;;;;16.53;7.50;;;26.80;74.50;;;27.53;52.28;93865.47;5075346;28;20466;-62
2023/07/26 03:07:42;;;;;;;22.47;7.87;;;26.80;74.60;;;27.51;52.31;93858.69;5078011;28;20461;-58
2023/07/26 03:10:10;;;;;;;18.40;7.37;;;26.80;75.40;;;27.45;51.99;93857.06;5075863;28;20631;-63
2023/07/26 03:12:37;;;;;;;13.97;7.93;;;26.70;74.90;;;27.39;52.44;93842.78;5072788;28;20959;-61
2023/07/26 03:15:06;;;;;;;22.83;8.23;;;26.70;75.60;;;27.35;52.24;93857.91;5070213;28;20477;-59
2023/07/26 03:17:34;;;;;;;13.73;6.83;;;26.60;75.10;;;27.31;52.50;93859.47;5074290;28;20959;-61
2023/07/26 03:20:01;;;;;;;20.00;7.33;;;26.60;75.20;;;27.28;52.72;93843.81;5074110;28;20527;-60
2023/07/26 03:22:29;;;;;;;20.60;8.37;;;26.50;75.50;;;27.29;52.75;93840.03;5079065;28;20457;-62
2023/07/26 03:24:57;;;;;;;14.93;8.20;;;26.50;75.50;;;27.31;52.35;93849.53;5070994;28;20853;-61
2023/07/26 03:27:24;;;;;;;15.17;7.97;;;26.60;75.50;;;27.27;52.69;93839.50;5079936;28;20506;-60
2023/07/26 03:29:51;;;;;;;21.47;7.10;;;26.50;75.40;;;27.25;52.50;93839.78;5070244;28;21040;-57
2023/07/26 03:32:19;;;;;;;17.37;7.47;;;26.50;75.70;;;27.27;52.28;93858.41;5075426;28;20525;-61
2023/07/26 03:34:47;;;;;;;30.90;7.40;;;26.50;75.50;;;27.25;51.97;93855.16;5076507;28;20453;-59
2023/07/26 03:37:14;;;;;;;25.97;8.80;;;26.50;75.50;;;27.20;52.54;93853.25;5074336;28;20454;-61
2023/07/26 03:39:42;;;;;;;16.50;7.47;;;26.40;75.80;;;27.14;52.60;93841.66;5076003;28;21336;-60
2023/07/26 03:42:10;;;;;;;19.50;7.63;;;26.40;75.60;;;27.13;52.54;93845.44;5077565;28;20967;-59
2023/07/26 03:44:37;;;;;;;25.20;9.37;;;26.40;75.90;;;27.12;52.44;93851.91;5074767;28;20537;-60
2023/07/26 03:47:04;;;;;;;21.50;10.13;;;26.40;75.80;;;27.06;52.70;93857.56;5076942;28;20454;-59
2023/07/26 03:49:32;;;;;;;17.43;8.27;;;26.40;75.90;;;26.96;52.89;93852.97;5077491;28;20494;-59
2023/07/26 03:51:59;;;;;;;17.43;8.17;;;26.30;76.00;;;26.86;53.10;93855.63;5073529;28;21075;-60
2023/07/26 03:54:26;;;;;;;15.90;8.33;;;26.20;76.30;;;26.83;53.26;93867.75;5079673;28;20564;-60
2023/07/26 03:56:55;;;;;;;28.03;8.70;;;26.20;76.70;;;26.84;53.24;93877.50;5072296;28;20478;-59
2023/07/26 03:59:22;;;;;;;17.47;8.47;;;26.10;76.90;;;26.84;53.50;93875.59;5078870;28;20461;-60
2023/07/26 04:01:49;;;;;;;19.80;8.40;;;26.10;77.20;;;26.90;53.69;93881.03;5071297;28;20493;-60
2023/07/26 04:04:17;;;;;;;15.93;8.33;;;26.20;77.70;;;26.93;53.44;93880.50;5078401;28;20449;-62
2023/07/26 04:06:44;;;;;;;18.77;9.17;;;26.20;77.30;;;26.96;53.40;93885.34;5075202;28;20474;-60
2023/07/26 04:09:11;;;;;;;20.80;8.50;;;26.20;77.30;;;27.01;53.09;93878.06;5077440;28;20922;-63
2023/07/26 04:11:38;;;;;;;14.03;7.53;;;26.30;77.00;;;27.07;52.95;93872.69;5075476;28;20466;-61
2023/07/26 04:14:07;;;;;;;20.27;8.40;;;26.30;76.90;;;27.13;52.91;93883.22;5073594;28;20459;-62
2023/07/26 04:16:34;;;;;;;27.93;8.70;;;26.30;76.80;;;27.18;52.69;93883.22;5071383;28;20473;-61
2023/07/26 04:19:01;;;;;;;31.23;8.53;;;26.40;76.40;;;27.18;52.61;93869.72;5075948;28;21325;-61
2023/07/26 04:21:29;;;;;;;18.70;8.23;;;26.40;76.40;;;27.22;52.80;93875.41;5073380;28;20528;-63
2023/07/26 04:23:56;;;;;;;18.73;8.50;;;26.50;76.50;;;27.25;52.60;93874.88;5080448;28;20449;-61
2023/07/26 04:26:23;;;;;;;22.23;10.27;;;26.50;76.20;;;27.30;52.49;93879.47;5072247;28;20473;-63
2023/07/26 04:28:50;;;;;;;29.97;9.00;;;26.50;76.10;;;27.33;52.20;93878.97;5075589;28;20437;-61
2023/07/26 04:31:19;;;;;;;32.80;8.40;;;26.60;75.60;;;27.34;52.41;93857.09;5070979;28;21064;-60
2023/07/26 04:33:47;;;;;;;16.10;7.73;;;26.60;76.10;;;27.37;52.20;93863.81;5078642;28;21308;-60
2023/07/26 04:36:14;;;;;;;25.87;9.07;;;26.60;75.40;;;27.39;51.73;93872.50;5071626;28;20481;-64
2023/07/26 04:38:41;;;;;;;17.13;8.50;;;26.70;75.40;;;27.45;51.91;93868.72;5079338;28;20456;-60
2023/07/26 04:41:09;;;;;;;21.67;7.80;;;26.70;74.90;;;27.54;50.78;93864.38;5073145;28;20588;-62
2023/07/26 04:43:36;;;;;;;29.57;8.37;;;26.80;73.80;;;27.65;51.11;93867.91;5078615;28;20493;-59
2023/07/26 04:46:03;;;;;;;20.53;10.10;;;26.90;74.30;;;27.71;51.17;93857.88;5073644;28;21178;-60
2023/07/26 04:48:32;;;;;;;14.50;7.60;;;26.90;74.30;;;27.76;51.57;93855.16;5076783;28;20931;-63
2023/07/26 04:51:00;;;;;;;19.37;8.20;;;27.00;74.70;;;27.82;51.23;93867.56;5073800;28;20551;-60
2023/07/26 04:53:27;;;;;;;19.33;9.73;;;27.10;74.80;;;27.88;51.47;93868.38;5074522;28;20460;-59
2023/07/26 04:55:56;;;;;;;22.33;9.97;;;27.10;75.20;;;27.96;51.93;93853.53;5074727;28;20470;-64
2023/07/26 04:58:23;;;;;;;16.00;8.80;;;27.20;75.60;;;28.02;52.02;93857.84;5080055;28;20471;-63
2023/07/26 05:00:50;;;;;;;26.70;9.40;;;27.20;76.20;;;28.07;51.67;93847.03;5076373;28;20946;-60
2023/07/26 05:03:17;;;;;;;21.97;9.00;;;27.30;75.60;;;28.15;51.69;93854.59;5077117;28;20476;-60
2023/07/26 05:05:51;;;;;;;26.23;9.70;;;27.40;75.50;;;28.21;51.43;93845.38;5078058;28;20473;-62
2023/07/26 05:08:18;;;;;;;17.77;9.20;;;27.40;75.70;;;28.30;51.47;93855.63;5073799;28;20473;-61
2023/07/26 05:10:50;;;;;;;18.30;8.37;;;27.50;75.80;;;28.39;52.41;93862.06;5077326;28;21067;-61
2023/07/26 05:13:17;;;;;;;19.43;8.93;;;27.60;76.30;;;28.49;51.69;93856.63;5071526;28;20821;-60
2023/07/26 05:15:44;;;;;;;23.53;9.07;;;27.70;75.90;;;28.58;52.04;93859.56;5079633;28;20462;-61
2023/07/26 05:18:14;;;;;;;22.47;9.53;;;27.80;75.80;;;28.67;51.45;93851.72;5074108;28;21038;-60
2023/07/26 05:20:41;;;;;;;34.03;9.90;;;27.90;75.90;;;28.77;51.45;93844.34;5075243;28;20472;-62
2023/07/26 05:23:10;;;;;;;27.10;9.23;;;27.90;75.60;;;28.88;51.46;93852.41;5075048;28;20206;-62
2023/07/26 05:25:40;;;;;;;16.33;8.60;;;28.00;75.20;;;28.98;51.07;93847.72;5075369;28;20223;-60
2023/07/26 05:28:07;;;;;;;19.13;8.00;;;28.20;75.00;;;29.08;50.57;93851.47;5072535;28;20228;-63
2023/07/26 05:30:39;;;;;;;22.67;8.30;;;28.30;74.60;;;29.19;50.20;93847.59;5075303;28;20493;-62
2023/07/26 05:33:06;;;;;;;28.40;9.77;;;28.40;74.30;;;29.29;49.79;93852.97;5074632;28;20196;-62
2023/07/26 05:35:33;;;;;;;25.57;9.77;;;28.40;73.60;;;29.42;50.33;93853.41;5073523;28;20215;-60
2023/07/26 05:38:01;;;;;;;17.53;8.60;;;28.60;73.40;;;29.58;50.17;93854.13;5079019;28;20204;-59
2023/07/26 05:40:29;;;;;;;17.63;7.87;;;28.70;73.00;;;29.75;49.70;93853.69;5074133;28;20234;-63
2023/07/26 05:42:56;;;;;;;21.83;7.93;;;28.90;72.80;;;29.91;48.87;93857.91;5075131;28;20761;-63
2023/07/26 05:45:24;;;;;;;36.83;9.67;;;29.00;72.40;;;30.11;49.00;93856.09;5073524;28;20219;-61
2023/07/26 05:47:51;;;;;;;25.00;9.23;;;29.20;71.80;;;30.26;47.85;93841.56;5078181;28;20200;-60
2023/07/26 05:50:18;;;;;;;32.33;9.40;;;29.40;71.10;;;30.41;47.96;93843.28;5077255;28;20476;-59
2023/07/26 05:52:45;;;;;;;19.07;8.10;;;29.50;70.60;;;30.57;47.95;93847.44;5077765;28;20199;-61
2023/07/26 05:55:13;;;;;;;43.67;10.40;;;29.70;70.40;;;30.78;47.54;93849.88;5077987;28;20219;-60
2023/07/26 05:57:41;;;;;;;26.70;8.90;;;29.90;70.20;;;30.98;47.25;93844.19;5072890;28;20568;-59
2023/07/26 06:00:11;;;;;;;27.65;9.30;;;30.10;69.30;;;31.19;46.52;93858.31;5077549;28;21014;-63
2023/07/26 06:02:38;;;;;;;25.37;8.10;;;30.30;68.70;;;31.37;46.25;93848.53;5074477;28;20260;-62
2023/07/26 06:05:06;;;;;;;29.85;8.75;;;30.40;67.90;;;31.55;44.40;93843.38;5077318;28;20709;-59
2023/07/26 06:07:33;;;;;;;26.20;7.70;;;30.60;64.80;;;31.76;42.87;93836.50;5077604;28;20588;-62
2023/07/26 06:10:01;;;;;;;36.28;8.40;;;30.80;62.60;;;31.99;41.59;93842.91;5077101;28;20232;-62
2023/07/26 06:12:28;;;;;;;22.75;8.02;;;31.00;60.80;;;32.25;39.48;93838.91;5077827;28;20307;-62
2023/07/26 06:14:56;;;;;;;35.70;7.38;;;31.30;58.50;;;32.47;39.17;93839.03;5070805;28;20201;-59
2023/07/26 06:17:24;;;;;;;58.75;9.30;;;31.50;57.30;;;32.72;38.82;93847.81;5074951;28;20633;-59
2023/07/26 06:19:51;;;;;;;32.45;7.43;;;31.70;57.40;;;32.98;38.14;93845.31;5074688;28;20241;-63
2023/07/26 06:22:18;;;;;;;40.95;8.15;;;32.00;56.50;;;33.23;36.74;93845.88;5076559;28;20632;-62
2023/07/26 06:24:45;;;;;;;21.55;8.88;;;32.20;55.00;;;33.45;36.74;93836.94;5076305;28;20672;-63
2023/07/26 06:27:13;;;;;;;28.23;8.77;;;32.50;55.10;;;33.64;35.39;93846.84;5078370;28;20192;-61
2023/07/26 06:29:40;;;;;;;26.77;8.13;;;32.70;53.80;;;33.80;35.81;93848.09;5075109;28;20563;-61
2023/07/26 06:32:09;;;;;;;31.15;8.00;;;32.80;54.00;;;34.00;35.46;93846.75;5077445;28;20218;-62
2023/07/26 06:34:36;;;;;;;32.63;8.95;;;33.00;53.60;;;34.19;35.26;93841.09;5072145;28;20204;-62
2023/07/26 06:37:04;;;;;;;39.08;9.27;;;33.20;52.80;;;34.37;35.90;93852.13;5080607;28;20658;-62
2023/07/26 06:39:31;;;;;;;27.00;8.60;;;33.40;52.90;;;34.46;34.76;93836.56;5073213;28;20750;-59
2023/07/26 06:41:58;;;;;;;56.97;9.60;;;33.50;51.90;;;34.52;33.61;93843.50;5080166;28;20288;-60
2023/07/26 06:44:25;;;;;;;45.05;8.57;;;33.60;51.50;;;34.63;34.42;93844.00;5072128;28;21026;-62
2023/07/26 06:46:53;;;;;;;36.63;8.02;;;33.70;51.70;;;34.75;34.04;93837.91;5080569;28;20327;-59
2023/07/26 06:49:21;;;;;;;28.30;7.72;;;33.80;51.70;;;34.85;33.58;93859.50;5076179;28;20257;-61
2023/07/26 06:51:51;;;;;;;42.08;9.20;;;33.90;51.10;;;34.91;34.19;93849.25;5079455;28;20231;-62
2023/07/26 06:54:18;;;;;;;31.58;8.90;;;34.00;50.80;;;34.98;33.94;93841.38;5075328;28;20303;-61
2023/07/26 06:56:47;;;;;;;24.27;8.60;;;34.00;50.40;;;35.05;32.87;93840.91;5076346;28;20223;-59
2023/07/26 06:59:15;;;;;;;38.58;8.30;;;34.10;50.30;;;35.09;32.71;93842.69;5078987;28;20282;-60
2023/07/26 07:01:43;;;;;;;29.42;9.35;;;34.20;49.80;;;35.12;32.05;93841.22;5074295;28;20236;-59
2023/07/26 07:04:10;;;;;;;22.02;7.00;;;34.20;48.70;;;35.14;32.90;93849.94;5077153;28;20507;-62
2023/07/26 07:06:39;;;;;;;30.95;8.57;;;34.20;49.50;;;35.10;33.06;93838.00;5078788;28;20234;-59
2023/07/26 07:09:06;;;;;;;31.77;8.57;;;34.20;49.60;;;35.11;33.08;93839.63;5076535;28;20203;-59
2023/07/26 07:11:34;;;;;;;20.63;6.63;;;34.20;49.70;;;35.27;33.40;93846.25;5075996;28;20244;-61
2023/07/26 07:14:01;;;;;;;26.02;8.73;;;34.30;49.80;;;35.41;32.93;93848.81;5070139;28;20200;-63
2023/07/26 07:16:28;;;;;;;23.70;7.78;;;34.40;49.50;;;35.54;32.25;93842.38;5070883;28;21218;-60
2023/07/26 07:18:56;;;;;;;31.13;7.90;;;34.50;49.10;;;35.67;32.92;93843.34;5074768;28;20322;-62
2023/07/26 07:21:23;;;;;;;21.58;7.03;;;34.70;49.20;;;35.82;32.03;93849.44;5072597;28;20224;-59
2023/07/26 07:23:51;;;;;;;23.75;7.93;;;34.80;48.60;;;36.00;31.73;93842.81;5073085;28;20261;-58
2023/07/26 07:26:19;;;;;;;27.17;7.45;;;34.90;48.50;;;36.24;32.63;93842.25;5072883;28;20269;-60
2023/07/26 07:28:46;;;;;;;16.38;7.22;;;35.20;49.00;;;36.49;31.75;93849.94;5076103;28;20199;-62
2023/07/26 07:31:13;;;;;;;20.70;8.10;;;35.40;48.50;;;36.67;32.11;93848.72;5075779;28;20231;-60
2023/07/26 07:33:40;;;;;;;26.02;7.75;;;35.60;48.60;;;36.85;31.44;93854.13;5075773;28;20325;-62
2023/07/26 07:36:09;;;;;;;35.80;7.88;;;35.80;48.00;;;36.94;30.52;93852.13;5072524;28;20220;-61
2023/07/26 07:38:37;;;;;;;31.35;9.57;;;35.90;46.90;;;37.04;29.16;93859.16;5076142;28;20203;-60
2023/07/26 07:41:05;;;;;;;31.67;7.32;;;36.00;45.70;;;37.04;30.00;93850.94;5072729;28;20293;-64
2023/07/26 07:43:33;;;;;;;37.35;7.75;;;36.10;46.20;;;37.07;29.35;93840.09;5076193;28;20683;-63
2023/07/26 07:46:00;;;;;;;28.65;7.72;;;36.10;45.10;;;37.18;30.04;93836.97;5069298;28;20288;-60
2023/07/26 07:48:27;;;;;;;22.08;7.05;;;36.10;45.80;;;37.33;29.46;93836.41;5079947;28;20664;-62
2023/07/26 07:50:55;;;;;;;33.53;7.97;;;36.30;45.10;;;37.44;29.20;93842.28;5069655;28;20243;-61
2023/07/26 07:53:22;;;;;;;32.42;8.45;;;36.40;45.30;;;37.50;29.15;93841.75;5079642;28;20294;-58
2023/07/26 07:55:49;;;;;;;42.50;8.88;;;36.50;44.60;;;37.65;29.11;93836.78;5070058;28;20225;-59
2023/07/26 07:58:19;;;;;;;26.70;7.53;;;36.60;44.60;;;37.83;28.98;93849.22;5075518;28;20207;-63
2023/07/26 08:00:46;;;;;;;36.15;8.25;;;36.80;44.30;;;37.97;28.78;93850.84;5076594;28;20227;-61
2023/07/26 08:03:14;;;;;;;23.25;7.95;;;36.90;44.00;;;38.12;28.64;93839.22;5074383;28;20207;-63
2023/07/26 08:05:41;;;;;;;23.85;7.93;;;37.10;43.80;;;38.32;28.12;93862.28;5074266;28;20235;-64
2023/07/26 08:08:08;;;;;;;37.08;7.93;;;37.20;43.80;;;38.51;28.17;93838.97;5073176;28;20682;-61
2023/07/26 08:10:38;;;;;;;31.27;8.13;;;37.40;43.40;;;38.71;27.87;93840.03;5074620;28;20231;-62
2023/07/26 08:13:05;;;;;;;31.73;7.65;;;37.60;43.30;;;38.90;27.30;93840.25;5071148;28;20208;-60
2023/07/26 08:15:37;;;;;;;32.55;7.40;;;37.80;42.80;;;39.15;27.34;93839.44;5072551;28;20219;-63
2023/07/26 08:18:05;;;;;;;41.88;7.30;;;38.10;42.50;;;39.36;27.53;93840.06;5072473;28;20203;-59
2023/07/26 08:20:33;;;;;;;27.77;7.25;;;38.20;42.20;;;39.59;25.07;93832.13;5073854;28;20700;-60
2023/07/26 08:23:01;;;;;;;25.45;7.55;;;38.50;40.20;;;39.78;26.31;93838.91;5076828;28;20208;-59
2023/07/26 08:25:28;;;;;;;25.42;6.97;;;38.70;40.80;;;39.94;25.72;93842.53;5081866;28;20681;-62
2023/07/26 08:27:55;;;;;;;28.65;7.40;;;38.90;40.50;;;40.02;24.11;93835.28;5081827;28;20622;-60
2023/07/26 08:30:22;;;;;;;28.63;7.45;;;39.00;37.90;;;39.89;22.45;93839.22;5075716;28;20277;-61
2023/07/26 08:32:51;;;;;;;42.58;7.18;;;38.90;37.00;;;39.69;24.44;93824.50;5077335;28;20257;-61
2023/07/26 08:35:19;;;;;;;36.15;8.35;;;38.80;37.20;;;39.58;24.53;93835.22;5080816;28;20645;-60
2023/07/26 08:37:46;;;;;;;15.02;6.22;;;38.70;37.20;;;39.60;24.16;93828.22;5076805;28;20207;-59
2023/07/26 08:40:14;;;;;;;34.92;7.53;;;38.70;37.70;;;39.74;24.12;93822.31;5083153;28;20231;-63
2023/07/26 08:42:42;;;;;;;31.30;7.75;;;38.80;37.60;;;39.90;24.68;93830.59;5075776;28;20226;-62
2023/07/26 08:45:09;;;;;;;30.20;7.45;;;38.90;38.00;;;40.09;24.69;93827.19;5082369;28;20315;-63
2023/07/26 08:47:37;;;;;;;22.20;6.60;;;39.00;38.90;;;40.32;23.77;93830.13;5073856;28;20233;-63
2023/07/26 08:50:07;;;;;;;23.70;6.32;;;39.20;37.60;;;40.49;22.59;93817.19;5075865;28;20243;-60
2023/07/26 08:52:34;;;;;;;28.00;6.50;;;39.40;35.50;;;40.61;22.81;93825.38;5077538;28;20276;-60
2023/07/26 08:55:02;;;;;;;25.27;6.32;;;39.60;36.10;;;40.68;22.92;93821.97;5078878;28;20631;-60
2023/07/26 08:57:29;;;;;;;16.45;7.15;;;39.60;35.40;;;40.71;22.45;93823.22;5080922;28;20252;-62
2023/07/26 08:59:56;;;;;;;31.25;6.18;;;39.70;35.60;;;40.86;22.92;93825.19;5074615;28;20270;-64
2023/07/26 09:02:24;;;;;;;25.05;7.65;;;39.80;36.00;;;40.99;23.25;93829.41;5079450;28;20498;-63
2023/07/26 09:04:51;;;;;;;25.60;6.57;;;39.90;35.60;;;41.19;22.93;93829.47;5076678;28;20258;-59
2023/07/26 09:07:20;;;;;;;20.52;6.63;;;40.10;36.30;;;41.44;22.98;93820.97;5078503;28;20253;-60
2023/07/26 09:09:47;;;;;;;41.45;6.60;;;40.30;35.90;;;41.55;22.73;93835.78;5079128;28;20200;-60
2023/07/26 09:12:25;;;;;;;23.08;6.57;;;40.50;35.50;;;41.60;22.77;93823.63;5078508;28;20242;-63
2023/07/26 09:14:55;;;;;;;21.20;6.57;;;40.60;35.30;;;41.67;21.94;93830.09;5072697;28;20253;-58
2023/07/26 09:17:22;;;;;;;23.65;6.38;;;40.60;34.80;;;41.72;22.36;93840.09;5072360;28;20292;-59
2023/07/26 09:19:51;;;;;;;37.75;7.60;;;40.70;35.40;;;41.78;22.31;93830.34;5077179;28;20195;-58
2023/07/26 09:22:20;;;;;;;30.65;7.18;;;40.70;34.80;;;41.68;22.12;93823.44;5074111;28;20574;-60
2023/07/26 09:24:50;;;;;;;27.00;6.30;;;40.70;34.80;;;41.64;22.81;93833.59;5076373;28;20204;-62
2023/07/26 09:27:19;;;;;;;31.15;6.35;;;40.60;35.10;;;41.64;21.98;93830.84;5080520;28;20210;-60
2023/07/26 09:29:55;;;;;;;27.80;7.15;;;40.60;34.40;;;41.69;21.87;93832.50;5073948;28;20211;-62
2023/07/26 09:32:28;;;;;;;11.48;5.82;;;40.70;34.10;;;41.80;21.81;93835.50;5079018;28;20307;-61
2023/07/26 09:34:59;;;;;;;28.20;6.72;;;40.80;34.20;;;41.87;21.92;93838.41;5077391;28;20199;-63
2023/07/26 09:37:28;;;;;;;16.38;5.88;;;40.80;34.20;;;41.81;21.82;93845.41;5072389;28;20232;-60
2023/07/26 09:39:55;;;;;;;22.20;6.70;;;40.80;33.90;;;41.78;22.04;93840.59;5071619;28;20283;-58
2023/07/26 09:42:23;;;;;;;31.10;5.68;;;40.80;33.80;;;41.76;21.69;93835.44;5072659;28;20652;-61
2023/07/26 09:44:57;;;;;;;15.07;6.10;;;40.80;33.90;;;41.79;21.65;93836.69;5075644;28;20290;-63
2023/07/26 09:47:35;;;;;;;28.50;6.22;;;40.80;34.20;;;41.82;21.31;93828.47;5073353;28;20199;-61
2023/07/26 09:50:02;;;;;;;28.33;9.73;;;40.80;33.60;;;41.85;21.80;93835.22;5081968;28;20615;-63
2023/07/26 09:52:31;;;;;;;59.33;9.60;;;40.90;34.00;;;41.85;21.81;93840.75;5075008;28;20238;-63
2023/07/26 09:55:00;;;;;;;57.03;8.40;;;40.80;33.80;;;41.86;21.47;93836.81;5080405;28;20269;-61
2023/07/26 09:57:28;;;;;;;25.23;6.97;;;40.80;33.10;;;41.85;21.78;93835.22;5074577;28;20308;-60
2023/07/26 09:59:58;;;;;;;22.90;5.90;;;40.80;33.50;;;41.85;21.48;93826.94;5079136;28;20231;-61
2023/07/26 10:02:25;;;;;;;15.68;7.10;;;40.80;33.50;;;41.90;21.69;93829.41;5076314;28;20211;-61
2023/07/26 10:04:56;;;;;;;19.77;6.78;;;40.90;33.30;;;41.90;21.86;93829.41;5076221;28;20919;-59
2023/07/26 10:07:26;;;;;;;10.63;5.40;;;40.90;33.70;;;41.90;21.59;93823.88;5077304;28;20200;-59
2023/07/26 10:09:54;;;;;;;21.92;6.28;;;40.90;33.50;;;41.92;21.49;93813.25;5078802;28;20600;-62
2023/07/26 10:12:23;;;;;;;25.02;6.20;;;40.90;33.50;;;41.93;21.59;93818.41;5076935;28;20707;-63
2023/07/26 10:14:50;;;;;;;26.15;6.65;;;40.90;33.80;;;41.93;22.04;93821.16;5070178;28;20257;-59